Oyhat, Washington
Current Conditions -  °F | °C
As of 12:53 AM on Saturday 22 Nov 2014 (Local Time) from KHQM Reporting Station
Clear Clear  
Wind Chill: 50°   Ceiling: Unl
Heat Index: 50°   Visibility: 7mi
Dew Point: 41°   Wind: 12mph
Humidity: 71%   Direction: 260°W
Pressure: 29.61"   Gusts: NA
Location:  47.0202°N, 123.878°W
Report Text: KHQM 220853Z AUTO 26010KT 7SM CLR 10/05 A2961 RMK AO2 SLP031 60005 T01000050 51035
Loading
Personal Weather Stations






























Interactive Weather Map New forecast layout! Learn more

10-Day Weather Forecast

Advertisements
Track Severe Weather on mobile